createdAt,value
2019-05-01T00:00:56.585Z,108.70
2019-05-01T00:05:15.999Z,114.50
2019-05-01T00:09:32.985Z,104.53
2019-05-01T00:13:49.455Z,118.70
2019-05-01T00:18:06.106Z,101.80
2019-05-01T00:22:22.952Z,86.83
2019-05-01T00:26:39.502Z,91.23
2019-05-01T00:30:56.132Z,74.13
2019-05-01T00:35:12.787Z,66.00
2019-05-01T00:39:29.521Z,92.00
2019-05-01T00:43:46.007Z,65.73
2019-05-01T00:48:02.551Z,80.90
2019-05-01T00:52:19.000Z,72.43
2019-05-01T00:56:37.557Z,78.77
2019-05-01T01:01:07.729Z,89.20
2019-05-01T01:05:24.498Z,108.43
2019-05-01T01:09:41.314Z,156.47
2019-05-01T01:13:57.872Z,104.67
2019-05-01T01:18:14.748Z,119.10
2019-05-01T01:22:31.377Z,114.47
2019-05-01T01:26:48.199Z,104.77
2019-05-01T01:31:04.749Z,139.47
2019-05-01T01:35:21.573Z,122.03
2019-05-01T01:39:38.235Z,101.30
2019-05-01T01:44:06.889Z,100.77
2019-05-01T01:48:23.721Z,142.37
2019-05-01T01:52:40.722Z,110.40
2019-05-01T01:56:57.303Z,107.40
2019-05-01T02:01:22.891Z,105.57
2019-05-01T02:05:41.435Z,108.90
2019-05-01T02:09:58.425Z,113.93
2019-05-01T02:14:15.455Z,103.60
2019-05-01T02:18:32.285Z,94.80
2019-05-01T02:22:48.943Z,166.83
2019-05-01T02:27:10.243Z,127.27
2019-05-01T02:31:31.859Z,127.67
2019-05-01T02:35:48.593Z,131.33
2019-05-01T02:40:44.871Z,111.47
2019-05-01T02:45:03.675Z,94.47
2019-05-01T02:49:33.114Z,89.50
2019-05-01T02:53:50.096Z,77.17
2019-05-01T02:58:08.349Z,81.80
2019-05-01T03:02:27.526Z,78.30
2019-05-01T03:06:45.639Z,70.10
2019-05-01T03:11:02.333Z,95.80
2019-05-01T03:15:24.359Z,67.80
2019-05-01T03:19:49.296Z,71.37
2019-05-01T03:24:11.151Z,85.83
2019-05-01T03:28:27.983Z,60.73
2019-05-01T03:32:44.464Z,88.13
2019-05-01T03:37:01.523Z,86.57
2019-05-01T03:41:18.180Z,60.03
2019-05-01T03:45:35.229Z,69.80
2019-05-01T03:49:52.187Z,52.33
2019-05-01T03:54:08.935Z,45.97
2019-05-01T03:58:25.571Z,49.03
2019-05-01T04:02:44.532Z,57.27
2019-05-01T04:07:01.171Z,56.53
2019-05-01T04:11:18.439Z,60.13
2019-05-01T04:15:35.505Z,55.10
2019-05-01T04:19:52.226Z,75.07
2019-05-01T04:24:09.205Z,96.50
2019-05-01T04:28:31.757Z,85.57
2019-05-01T04:32:53.235Z,83.80
2019-05-01T04:37:11.631Z,64.30
2019-05-01T04:41:28.545Z,75.80
2019-05-01T04:45:45.309Z,87.03
2019-05-01T04:50:05.102Z,86.57
2019-05-01T04:54:21.713Z,64.37
2019-05-01T04:58:38.499Z,98.23
2019-05-01T05:03:04.401Z,56.70
2019-05-01T05:07:16.015Z,67.70
2019-05-01T05:11:34.658Z,88.30
2019-05-01T05:16:02.452Z,81.63
2019-05-01T05:20:19.605Z,89.43
2019-05-01T05:24:36.535Z,56.07
2019-05-01T05:28:53.722Z,109.13
2019-05-01T05:33:18.556Z,48.63
2019-05-01T05:37:37.847Z,62.93
2019-05-01T05:41:55.168Z,61.40
2019-05-01T05:46:11.789Z,65.07
2019-05-01T05:50:48.712Z,59.87
2019-05-01T05:55:07.775Z,54.57
2019-05-01T05:59:32.337Z,68.30
2019-05-01T06:04:08.808Z,74.70
2019-05-01T06:08:29.999Z,68.37
2019-05-01T06:12:58.373Z,73.30
2019-05-01T06:17:23.715Z,63.97
2019-05-01T06:21:44.441Z,57.33
2019-05-01T06:26:21.805Z,63.67
2019-05-01T06:30:41.989Z,60.33
2019-05-01T06:34:58.579Z,60.53
2019-05-01T06:39:15.976Z,39.67
2019-05-01T06:43:43.676Z,40.93
2019-05-01T06:48:02.279Z,47.07
2019-05-01T06:52:24.859Z,52.03
2019-05-01T06:56:44.002Z,38.00
2019-05-01T07:01:00.764Z,48.00
2019-05-01T07:05:20.379Z,38.70
2019-05-01T07:09:37.783Z,37.90
2019-05-01T07:13:55.919Z,37.00
2019-05-01T07:18:23.714Z,32.23
2019-05-01T07:22:46.496Z,26.10
2019-05-01T07:27:03.244Z,30.23
2019-05-01T07:31:20.188Z,24.57
2019-05-01T07:35:37.984Z,31.87
2019-05-01T07:39:55.029Z,29.97
2019-05-01T07:44:14.750Z,27.53
2019-05-01T07:48:41.736Z,23.33
2019-05-01T07:52:55.799Z,30.17
2019-05-01T07:57:13.005Z,29.13
2019-05-01T08:01:29.773Z,25.23
2019-05-01T08:05:46.939Z,32.70
2019-05-01T08:10:09.074Z,24.43
2019-05-01T08:14:25.620Z,23.47
2019-05-01T08:18:58.992Z,27.63
2019-05-01T08:23:15.053Z,22.50
2019-05-01T08:27:33.841Z,20.17
2019-05-01T08:31:52.743Z,22.80
2019-05-01T08:36:11.704Z,23.00
2019-05-01T08:40:28.635Z,19.50
2019-05-01T08:45:05.058Z,18.33
2019-05-01T08:49:23.457Z,20.10
2019-05-01T08:53:39.952Z,20.43
2019-05-01T08:57:56.750Z,17.80
2019-05-01T09:02:13.878Z,18.43
2019-05-01T09:06:34.813Z,18.23
2019-05-01T09:10:49.776Z,16.70
2019-05-01T09:15:12.270Z,17.50
2019-05-01T09:19:25.711Z,14.30
2019-05-01T09:23:46.097Z,16.67
2019-05-01T09:28:11.765Z,14.93
2019-05-01T09:32:28.664Z,16.93
2019-05-01T09:36:45.699Z,14.67
2019-05-01T09:41:02.509Z,19.57
2019-05-01T09:45:19.268Z,20.20
2019-05-01T09:49:55.931Z,13.52
2019-05-01T09:54:20.609Z,18.00
2019-05-01T09:58:37.153Z,20.20
2019-05-01T10:02:54.762Z,23.10
2019-05-01T10:07:13.280Z,22.33
2019-05-01T10:11:30.762Z,22.07
2019-05-01T10:15:47.731Z,27.83
2019-05-01T10:20:06.052Z,22.57
2019-05-01T10:24:22.611Z,20.53
2019-05-01T10:28:45.137Z,23.67
2019-05-01T10:33:01.642Z,19.93
2019-05-01T10:37:18.202Z,21.03
2019-05-01T10:41:34.699Z,21.20
2019-05-01T10:45:51.254Z,22.37
2019-05-01T10:50:08.846Z,20.70
2019-05-01T10:54:25.416Z,21.40
2019-05-01T10:58:42.017Z,21.30
2019-05-01T11:02:58.728Z,19.40
2019-05-01T11:07:15.434Z,17.27
2019-05-01T11:11:32.146Z,13.27
2019-05-01T11:15:48.795Z,11.00
2019-05-01T11:20:06.692Z,11.97
2019-05-01T11:24:23.259Z,10.33
2019-05-01T11:28:40.143Z,11.27
2019-05-01T11:32:58.143Z,11.60
2019-05-01T11:37:19.065Z,10.23
2019-05-01T11:41:39.985Z,10.00
2019-05-01T11:45:56.589Z,10.40
2019-05-01T11:50:13.284Z,10.73
2019-05-01T11:54:29.829Z,10.43
2019-05-01T11:58:46.871Z,10.90
2019-05-01T12:03:03.792Z,9.47
2019-05-01T12:07:20.429Z,8.37
2019-05-01T12:11:38.899Z,10.40
2019-05-01T12:15:57.671Z,11.30
2019-05-01T12:20:15.315Z,10.93
2019-05-01T12:24:32.298Z,11.73
2019-05-01T12:28:48.877Z,9.93
2019-05-01T12:33:05.774Z,12.63
2019-05-01T12:37:33.003Z,10.50
2019-05-01T12:41:51.771Z,10.10
2019-05-01T12:46:10.385Z,9.60
2019-05-01T12:50:27.136Z,8.13
2019-05-01T12:54:57.794Z,11.00
2019-05-01T12:59:14.710Z,10.80
2019-05-01T13:03:31.246Z,12.82
2019-05-01T13:07:47.847Z,8.15
2019-05-01T13:12:04.579Z,12.98
2019-05-01T13:16:21.095Z,11.22
2019-05-01T13:20:37.702Z,11.78
2019-05-01T13:24:54.247Z,11.10
2019-05-01T13:29:15.508Z,9.10
2019-05-01T13:33:32.457Z,11.37
2019-05-01T13:37:48.991Z,8.57
2019-05-01T13:42:08.966Z,11.90
2019-05-01T13:46:25.102Z,11.60
2019-05-01T13:50:41.722Z,12.27
2019-05-01T13:54:58.693Z,9.57
2019-05-01T13:59:15.678Z,10.63
2019-05-01T14:03:32.390Z,11.95
2019-05-01T14:07:48.912Z,8.88
2019-05-01T14:12:05.490Z,13.50
2019-05-01T14:16:22.058Z,13.43
2019-05-01T14:20:58.989Z,10.98
2019-05-01T14:25:15.537Z,11.03
2019-05-01T14:29:32.191Z,11.75
2019-05-01T14:33:48.981Z,10.38
2019-05-01T14:38:05.774Z,10.80
2019-05-01T14:42:22.319Z,12.18
2019-05-01T14:46:39.053Z,11.35
2019-05-01T14:50:55.672Z,9.95
2019-05-01T14:55:12.383Z,10.70
2019-05-01T14:59:28.904Z,12.70
2019-05-01T15:03:45.756Z,12.05
2019-05-01T15:08:03.242Z,10.35
2019-05-01T15:12:19.849Z,11.88
2019-05-01T15:16:47.230Z,12.58
2019-05-01T15:21:03.757Z,13.62
2019-05-01T15:25:20.591Z,10.43
2019-05-01T15:29:37.592Z,10.40
2019-05-01T15:33:54.123Z,12.18
2019-05-01T15:38:10.622Z,12.88
2019-05-01T15:42:29.618Z,11.80
2019-05-01T15:46:46.344Z,12.10
2019-05-01T15:51:03.397Z,11.10
2019-05-01T15:55:19.915Z,11.97
2019-05-01T15:59:36.404Z,13.23
2019-05-01T16:03:52.943Z,10.57
2019-05-01T16:08:10.123Z,10.80
2019-05-01T16:12:28.994Z,13.20
2019-05-01T16:16:45.819Z,11.63
2019-05-01T16:21:02.632Z,9.97
2019-05-01T16:25:19.189Z,11.43
2019-05-01T16:29:35.723Z,13.63
2019-05-01T16:33:53.305Z,12.90
2019-05-01T16:38:23.176Z,13.40
2019-05-01T16:42:37.721Z,11.97
2019-05-01T16:46:54.258Z,10.87
2019-05-01T16:51:11.087Z,9.47
2019-05-01T16:55:28.192Z,7.43
2019-05-01T16:59:45.953Z,7.13
2019-05-01T17:04:11.814Z,7.07
2019-05-01T17:08:49.529Z,6.83
2019-05-01T17:13:07.027Z,4.70
2019-05-01T17:17:24.097Z,5.93
2019-05-01T17:21:41.143Z,4.57
2019-05-01T17:25:58.460Z,5.30
2019-05-01T17:30:20.352Z,5.67
2019-05-01T17:34:37.018Z,5.20
2019-05-01T17:38:53.614Z,7.10
2019-05-01T17:43:13.523Z,9.10
2019-05-01T17:47:29.622Z,12.17
2019-05-01T17:51:49.440Z,10.50
2019-05-01T17:56:10.084Z,10.50
2019-05-01T18:00:35.700Z,14.10
2019-05-01T18:04:58.352Z,13.63
2019-05-01T18:09:16.772Z,13.00
2019-05-01T18:13:40.010Z,9.37
2019-05-01T18:17:59.762Z,8.67
2019-05-01T18:22:38.888Z,6.90
2019-05-01T18:27:14.702Z,8.70
2019-05-01T18:31:33.157Z,10.67
2019-05-01T18:35:50.541Z,10.20
2019-05-01T18:40:11.832Z,8.57
2019-05-01T18:44:30.550Z,5.80
2019-05-01T18:48:52.151Z,5.50
2019-05-01T18:53:13.770Z,5.83
2019-05-01T18:57:33.705Z,5.43
2019-05-01T19:01:50.315Z,5.87
2019-05-01T19:06:08.433Z,5.60
2019-05-01T19:10:27.522Z,6.10
2019-05-01T19:14:46.489Z,6.83
2019-05-01T19:19:06.914Z,6.37
2019-05-01T19:23:27.738Z,7.57
2019-05-01T19:27:43.299Z,7.87
2019-05-01T19:32:01.815Z,8.07
2019-05-01T19:36:19.762Z,7.87
2019-05-01T19:40:37.599Z,10.03
2019-05-01T19:44:57.788Z,10.50
2019-05-01T19:49:17.939Z,10.30
2019-05-01T19:53:40.760Z,11.80
2019-05-01T19:57:59.844Z,7.97
2019-05-01T20:02:22.155Z,6.87
2019-05-01T20:06:39.948Z,6.00
2019-05-01T20:10:57.110Z,5.97
2019-05-01T20:15:14.718Z,7.27
2019-05-01T20:19:31.912Z,7.67
2019-05-01T20:23:48.592Z,5.93
2019-05-01T20:28:07.257Z,7.37
2019-05-01T20:32:26.169Z,6.63
2019-05-01T20:36:42.781Z,6.83
2019-05-01T20:40:59.456Z,5.73
2019-05-01T20:45:18.160Z,7.47
2019-05-01T20:49:36.427Z,6.17
2019-05-01T20:53:53.418Z,6.90
2019-05-01T20:58:14.784Z,6.97
2019-05-01T21:02:31.559Z,6.00
2019-05-01T21:07:06.507Z,6.43
2019-05-01T21:11:27.750Z,7.37
2019-05-01T21:15:47.118Z,8.87
2019-05-01T21:20:04.375Z,7.93
2019-05-01T21:24:20.905Z,7.07
2019-05-01T21:28:37.379Z,7.80
2019-05-01T21:32:54.237Z,7.30
2019-05-01T21:37:10.778Z,7.97
2019-05-01T21:41:27.553Z,6.47
2019-05-01T21:45:43.995Z,6.43
2019-05-01T21:50:00.635Z,7.63
2019-05-01T21:54:20.670Z,6.30
2019-05-01T21:58:36.010Z,7.13
2019-05-01T22:02:52.599Z,7.20
2019-05-01T22:07:09.650Z,6.33
2019-05-01T22:11:26.196Z,6.77
2019-05-01T22:15:48.992Z,6.60
2019-05-01T22:20:08.070Z,7.83
2019-05-01T22:24:43.112Z,9.47
2019-05-01T22:29:04.579Z,9.47
2019-05-01T22:33:21.169Z,11.97
2019-05-01T22:37:37.807Z,9.13
2019-05-01T22:41:54.251Z,10.97
2019-05-01T22:46:12.680Z,9.93
2019-05-01T22:50:29.117Z,11.73
2019-05-01T22:54:48.870Z,10.07
2019-05-01T22:59:04.103Z,13.13
2019-05-01T23:03:26.693Z,9.70
2019-05-01T23:07:43.301Z,7.77
2019-05-01T23:12:00.533Z,7.53
2019-05-01T23:16:19.180Z,6.90
2019-05-01T23:20:39.060Z,9.00
2019-05-01T23:24:54.171Z,8.47
2019-05-01T23:29:10.594Z,11.20
2019-05-01T23:33:27.297Z,9.67
2019-05-01T23:37:44.067Z,8.50
2019-05-01T23:42:00.773Z,8.80
2019-05-01T23:46:17.548Z,12.97
2019-05-01T23:50:34.400Z,11.13
2019-05-01T23:54:50.907Z,13.73
2019-05-01T23:59:07.657Z,14.57
